sensor_id;sensor_type;location;lat;lon;timestamp;P1;durP1;ratioP1;P2;durP2;ratioP2
32946;SDS011;54465;51.230;22.504;2024-01-06T00:04:14;19.00;;;10.52;;
32946;SDS011;54465;51.230;22.504;2024-01-06T00:09:14;16.80;;;9.43;;
32946;SDS011;54465;51.230;22.504;2024-01-06T00:14:15;17.00;;;8.25;;
32946;SDS011;54465;51.230;22.504;2024-01-06T00:19:15;13.10;;;8.13;;
32946;SDS011;54465;51.230;22.504;2024-01-06T00:24:18;16.83;;;7.97;;
32946;SDS011;54465;51.230;22.504;2024-01-06T00:29:18;17.15;;;8.80;;
32946;SDS011;54465;51.230;22.504;2024-01-06T00:34:19;19.30;;;8.88;;
32946;SDS011;54465;51.230;22.504;2024-01-06T00:39:19;14.90;;;9.25;;
32946;SDS011;54465;51.230;22.504;2024-01-06T00:44:20;15.27;;;7.80;;
32946;SDS011;54465;51.230;22.504;2024-01-06T00:49:21;14.60;;;7.40;;
32946;SDS011;54465;51.230;22.504;2024-01-06T00:54:21;16.88;;;8.65;;
32946;SDS011;54465;51.230;22.504;2024-01-06T00:59:22;17.73;;;8.20;;
32946;SDS011;54465;51.230;22.504;2024-01-06T01:04:22;16.45;;;8.18;;
32946;SDS011;54465;51.230;22.504;2024-01-06T01:09:23;13.50;;;7.47;;
32946;SDS011;54465;51.230;22.504;2024-01-06T01:14:23;14.98;;;8.38;;
32946;SDS011;54465;51.230;22.504;2024-01-06T01:19:24;12.43;;;7.07;;
32946;SDS011;54465;51.230;22.504;2024-01-06T01:24:25;10.90;;;6.45;;
32946;SDS011;54465;51.230;22.504;2024-01-06T01:29:26;11.73;;;6.53;;
32946;SDS011;54465;51.230;22.504;2024-01-06T01:34:26;10.73;;;5.82;;
32946;SDS011;54465;51.230;22.504;2024-01-06T01:39:27;9.65;;;5.93;;
32946;SDS011;54465;51.230;22.504;2024-01-06T01:44:27;9.98;;;6.70;;
32946;SDS011;54465;51.230;22.504;2024-01-06T01:49:28;9.32;;;5.97;;
32946;SDS011;54465;51.230;22.504;2024-01-06T01:54:28;10.27;;;6.82;;
32946;SDS011;54465;51.230;22.504;2024-01-06T01:59:29;8.63;;;6.25;;
32946;SDS011;54465;51.230;22.504;2024-01-06T02:04:30;11.38;;;6.65;;
32946;SDS011;54465;51.230;22.504;2024-01-06T02:09:31;11.15;;;6.32;;
32946;SDS011;54465;51.230;22.504;2024-01-06T02:14:31;8.05;;;5.82;;
32946;SDS011;54465;51.230;22.504;2024-01-06T02:19:32;10.90;;;5.95;;
32946;SDS011;54465;51.230;22.504;2024-01-06T02:24:33;8.90;;;6.10;;
32946;SDS011;54465;51.230;22.504;2024-01-06T02:29:34;10.13;;;5.65;;
32946;SDS011;54465;51.230;22.504;2024-01-06T02:34:34;9.57;;;5.70;;
32946;SDS011;54465;51.230;22.504;2024-01-06T02:39:35;8.13;;;5.05;;
32946;SDS011;54465;51.230;22.504;2024-01-06T02:44:35;8.80;;;5.63;;
32946;SDS011;54465;51.230;22.504;2024-01-06T02:49:36;9.80;;;5.80;;
32946;SDS011;54465;51.230;22.504;2024-01-06T02:54:37;9.18;;;5.78;;
32946;SDS011;54465;51.230;22.504;2024-01-06T02:59:37;9.98;;;5.38;;
32946;SDS011;54465;51.230;22.504;2024-01-06T03:04:38;8.25;;;5.65;;
32946;SDS011;54465;51.230;22.504;2024-01-06T03:09:38;10.35;;;5.50;;
32946;SDS011;54465;51.230;22.504;2024-01-06T03:14:39;12.55;;;6.18;;
32946;SDS011;54465;51.230;22.504;2024-01-06T03:19:39;9.43;;;6.00;;
32946;SDS011;54465;51.230;22.504;2024-01-06T03:24:40;10.13;;;5.55;;
32946;SDS011;54465;51.230;22.504;2024-01-06T03:29:40;7.68;;;5.53;;
32946;SDS011;54465;51.230;22.504;2024-01-06T03:34:41;10.93;;;5.72;;
32946;SDS011;54465;51.230;22.504;2024-01-06T03:39:42;6.95;;;5.32;;
32946;SDS011;54465;51.230;22.504;2024-01-06T03:44:42;9.02;;;5.35;;
32946;SDS011;54465;51.230;22.504;2024-01-06T03:49:43;10.18;;;5.55;;
32946;SDS011;54465;51.230;22.504;2024-01-06T03:54:43;8.20;;;5.22;;
32946;SDS011;54465;51.230;22.504;2024-01-06T03:59:44;8.68;;;5.68;;
32946;SDS011;54465;51.230;22.504;2024-01-06T04:04:44;8.18;;;5.28;;
32946;SDS011;54465;51.230;22.504;2024-01-06T04:09:45;9.18;;;6.28;;
32946;SDS011;54465;51.230;22.504;2024-01-06T04:14:45;8.15;;;5.07;;
32946;SDS011;54465;51.230;22.504;2024-01-06T04:19:46;10.52;;;6.03;;
32946;SDS011;54465;51.230;22.504;2024-01-06T04:24:46;7.60;;;4.93;;
32946;SDS011;54465;51.230;22.504;2024-01-06T04:29:47;8.18;;;5.32;;
32946;SDS011;54465;51.230;22.504;2024-01-06T04:34:48;9.30;;;5.72;;
32946;SDS011;54465;51.230;22.504;2024-01-06T04:39:49;8.02;;;5.38;;
32946;SDS011;54465;51.230;22.504;2024-01-06T04:44:50;7.38;;;5.30;;
32946;SDS011;54465;51.230;22.504;2024-01-06T04:49:51;9.50;;;5.65;;
32946;SDS011;54465;51.230;22.504;2024-01-06T04:54:52;8.13;;;5.60;;
32946;SDS011;54465;51.230;22.504;2024-01-06T04:59:52;10.38;;;5.43;;
32946;SDS011;54465;51.230;22.504;2024-01-06T05:04:53;7.15;;;5.60;;
32946;SDS011;54465;51.230;22.504;2024-01-06T05:09:54;9.02;;;5.22;;
32946;SDS011;54465;51.230;22.504;2024-01-06T05:14:54;10.20;;;5.18;;
32946;SDS011;54465;51.230;22.504;2024-01-06T05:19:55;7.75;;;5.47;;
32946;SDS011;54465;51.230;22.504;2024-01-06T05:24:55;10.05;;;5.43;;
32946;SDS011;54465;51.230;22.504;2024-01-06T05:29:56;8.98;;;5.20;;
32946;SDS011;54465;51.230;22.504;2024-01-06T05:34:57;10.82;;;5.97;;
32946;SDS011;54465;51.230;22.504;2024-01-06T05:39:57;11.77;;;6.47;;
32946;SDS011;54465;51.230;22.504;2024-01-06T05:45:01;8.40;;;5.90;;
32946;SDS011;54465;51.230;22.504;2024-01-06T05:50:02;10.05;;;6.50;;
32946;SDS011;54465;51.230;22.504;2024-01-06T05:55:04;11.30;;;7.40;;
32946;SDS011;54465;51.230;22.504;2024-01-06T06:00:07;10.32;;;7.35;;
32946;SDS011;54465;51.230;22.504;2024-01-06T06:05:12;10.30;;;6.57;;
32946;SDS011;54465;51.230;22.504;2024-01-06T06:10:13;12.05;;;6.88;;
32946;SDS011;54465;51.230;22.504;2024-01-06T06:15:16;10.80;;;6.10;;
32946;SDS011;54465;51.230;22.504;2024-01-06T06:20:16;9.27;;;5.97;;
32946;SDS011;54465;51.230;22.504;2024-01-06T06:25:17;11.48;;;6.70;;
32946;SDS011;54465;51.230;22.504;2024-01-06T06:30:17;10.10;;;6.35;;
32946;SDS011;54465;51.230;22.504;2024-01-06T06:35:18;9.40;;;5.95;;
32946;SDS011;54465;51.230;22.504;2024-01-06T06:40:18;9.48;;;6.22;;
32946;SDS011;54465;51.230;22.504;2024-01-06T06:45:20;11.25;;;6.75;;
32946;SDS011;54465;51.230;22.504;2024-01-06T06:50:22;7.97;;;5.55;;
32946;SDS011;54465;51.230;22.504;2024-01-06T06:55:23;9.50;;;6.40;;
32946;SDS011;54465;51.230;22.504;2024-01-06T07:00:23;11.27;;;6.95;;
32946;SDS011;54465;51.230;22.504;2024-01-06T07:05:24;10.30;;;7.00;;
32946;SDS011;54465;51.230;22.504;2024-01-06T07:10:25;11.18;;;6.50;;
32946;SDS011;54465;51.230;22.504;2024-01-06T07:15:26;8.90;;;6.22;;
32946;SDS011;54465;51.230;22.504;2024-01-06T07:20:26;9.13;;;6.20;;
32946;SDS011;54465;51.230;22.504;2024-01-06T07:25:27;11.75;;;7.13;;
32946;SDS011;54465;51.230;22.504;2024-01-06T07:30:28;9.55;;;6.18;;
32946;SDS011;54465;51.230;22.504;2024-01-06T07:35:28;10.88;;;6.95;;
32946;SDS011;54465;51.230;22.504;2024-01-06T07:40:29;10.15;;;6.72;;
32946;SDS011;54465;51.230;22.504;2024-01-06T07:45:30;9.27;;;6.30;;
32946;SDS011;54465;51.230;22.504;2024-01-06T07:50:31;10.82;;;6.78;;
32946;SDS011;54465;51.230;22.504;2024-01-06T07:55:32;10.32;;;6.57;;
32946;SDS011;54465;51.230;22.504;2024-01-06T08:00:33;10.05;;;6.43;;
32946;SDS011;54465;51.230;22.504;2024-01-06T08:05:33;10.15;;;5.88;;
32946;SDS011;54465;51.230;22.504;2024-01-06T08:10:34;10.05;;;6.20;;
32946;SDS011;54465;51.230;22.504;2024-01-06T08:15:34;8.60;;;6.28;;
32946;SDS011;54465;51.230;22.504;2024-01-06T08:20:35;9.18;;;5.85;;
32946;SDS011;54465;51.230;22.504;2024-01-06T08:25:36;8.05;;;5.60;;
32946;SDS011;54465;51.230;22.504;2024-01-06T08:30:36;8.75;;;5.47;;
32946;SDS011;54465;51.230;22.504;2024-01-06T08:35:37;10.23;;;5.45;;
32946;SDS011;54465;51.230;22.504;2024-01-06T08:40:40;7.03;;;4.93;;
32946;SDS011;54465;51.230;22.504;2024-01-06T08:45:42;10.13;;;6.43;;
32946;SDS011;54465;51.230;22.504;2024-01-06T08:50:42;10.35;;;6.13;;
32946;SDS011;54465;51.230;22.504;2024-01-06T08:55:43;9.35;;;6.00;;
32946;SDS011;54465;51.230;22.504;2024-01-06T09:00:43;9.88;;;6.80;;
32946;SDS011;54465;51.230;22.504;2024-01-06T09:05:44;8.80;;;5.90;;
32946;SDS011;54465;51.230;22.504;2024-01-06T09:10:44;9.25;;;6.35;;
32946;SDS011;54465;51.230;22.504;2024-01-06T09:15:45;11.80;;;6.95;;
32946;SDS011;54465;51.230;22.504;2024-01-06T09:20:45;11.57;;;6.38;;
32946;SDS011;54465;51.230;22.504;2024-01-06T09:25:49;12.15;;;6.60;;
32946;SDS011;54465;51.230;22.504;2024-01-06T09:30:52;11.32;;;7.13;;
32946;SDS011;54465;51.230;22.504;2024-01-06T09:35:54;11.00;;;7.38;;
32946;SDS011;54465;51.230;22.504;2024-01-06T09:40:55;12.15;;;7.07;;
32946;SDS011;54465;51.230;22.504;2024-01-06T09:45:58;14.13;;;7.97;;
32946;SDS011;54465;51.230;22.504;2024-01-06T09:51:09;13.10;;;7.85;;
32946;SDS011;54465;51.230;22.504;2024-01-06T09:56:11;11.30;;;7.60;;
32946;SDS011;54465;51.230;22.504;2024-01-06T10:01:12;12.77;;;7.55;;
32946;SDS011;54465;51.230;22.504;2024-01-06T10:06:14;14.38;;;6.90;;
32946;SDS011;54465;51.230;22.504;2024-01-06T10:11:15;10.07;;;6.65;;
32946;SDS011;54465;51.230;22.504;2024-01-06T10:16:16;10.85;;;6.32;;
32946;SDS011;54465;51.230;22.504;2024-01-06T10:21:17;11.25;;;6.82;;
32946;SDS011;54465;51.230;22.504;2024-01-06T10:26:21;10.05;;;7.05;;
32946;SDS011;54465;51.230;22.504;2024-01-06T10:31:22;10.88;;;6.78;;
32946;SDS011;54465;51.230;22.504;2024-01-06T10:36:23;10.63;;;6.38;;
32946;SDS011;54465;51.230;22.504;2024-01-06T10:41:23;13.52;;;7.55;;
32946;SDS011;54465;51.230;22.504;2024-01-06T10:46:24;11.27;;;7.30;;
32946;SDS011;54465;51.230;22.504;2024-01-06T10:51:26;12.18;;;6.75;;
32946;SDS011;54465;51.230;22.504;2024-01-06T10:56:28;12.25;;;7.00;;
32946;SDS011;54465;51.230;22.504;2024-01-06T11:01:31;8.43;;;6.05;;
32946;SDS011;54465;51.230;22.504;2024-01-06T11:06:32;9.40;;;6.43;;
32946;SDS011;54465;51.230;22.504;2024-01-06T11:11:34;10.65;;;6.32;;
32946;SDS011;54465;51.230;22.504;2024-01-06T11:16:36;11.82;;;7.03;;
32946;SDS011;54465;51.230;22.504;2024-01-06T11:21:37;10.13;;;6.20;;
32946;SDS011;54465;51.230;22.504;2024-01-06T11:26:38;9.77;;;6.07;;
32946;SDS011;54465;51.230;22.504;2024-01-06T11:31:40;9.90;;;5.82;;
32946;SDS011;54465;51.230;22.504;2024-01-06T11:36:43;8.68;;;5.88;;
32946;SDS011;54465;51.230;22.504;2024-01-06T11:41:46;10.10;;;6.20;;
32946;SDS011;54465;51.230;22.504;2024-01-06T11:46:48;9.55;;;6.53;;
32946;SDS011;54465;51.230;22.504;2024-01-06T11:51:50;11.85;;;6.80;;
32946;SDS011;54465;51.230;22.504;2024-01-06T11:56:50;10.23;;;6.55;;
32946;SDS011;54465;51.230;22.504;2024-01-06T12:01:54;9.77;;;6.13;;
32946;SDS011;54465;51.230;22.504;2024-01-06T12:07:04;10.95;;;6.30;;
32946;SDS011;54465;51.230;22.504;2024-01-06T12:12:06;9.60;;;6.13;;
32946;SDS011;54465;51.230;22.504;2024-01-06T12:17:07;8.73;;;6.20;;
32946;SDS011;54465;51.230;22.504;2024-01-06T12:22:09;8.07;;;5.40;;
32946;SDS011;54465;51.230;22.504;2024-01-06T12:27:17;9.40;;;5.97;;
32946;SDS011;54465;51.230;22.504;2024-01-06T12:32:18;10.65;;;6.40;;
32946;SDS011;54465;51.230;22.504;2024-01-06T12:37:19;9.70;;;6.20;;
32946;SDS011;54465;51.230;22.504;2024-01-06T12:42:19;10.68;;;6.38;;
32946;SDS011;54465;51.230;22.504;2024-01-06T12:47:22;8.75;;;5.82;;
32946;SDS011;54465;51.230;22.504;2024-01-06T12:52:23;11.63;;;6.85;;
32946;SDS011;54465;51.230;22.504;2024-01-06T12:57:24;10.18;;;6.28;;
32946;SDS011;54465;51.230;22.504;2024-01-06T13:02:24;12.65;;;6.40;;
32946;SDS011;54465;51.230;22.504;2024-01-06T13:07:25;8.55;;;5.85;;
32946;SDS011;54465;51.230;22.504;2024-01-06T13:12:25;10.18;;;6.35;;
32946;SDS011;54465;51.230;22.504;2024-01-06T13:17:29;11.05;;;5.93;;
32946;SDS011;54465;51.230;22.504;2024-01-06T13:22:29;10.32;;;6.80;;
32946;SDS011;54465;51.230;22.504;2024-01-06T13:27:31;10.02;;;5.45;;
32946;SDS011;54465;51.230;22.504;2024-01-06T13:32:32;8.88;;;5.60;;
32946;SDS011;54465;51.230;22.504;2024-01-06T13:37:32;9.38;;;5.25;;
32946;SDS011;54465;51.230;22.504;2024-01-06T13:42:33;8.60;;;5.53;;
32946;SDS011;54465;51.230;22.504;2024-01-06T13:47:33;10.57;;;6.10;;
32946;SDS011;54465;51.230;22.504;2024-01-06T13:52:34;7.70;;;4.82;;
32946;SDS011;54465;51.230;22.504;2024-01-06T13:57:36;8.98;;;5.00;;
32946;SDS011;54465;51.230;22.504;2024-01-06T14:02:41;9.02;;;5.75;;
32946;SDS011;54465;51.230;22.504;2024-01-06T14:07:41;8.05;;;5.28;;
32946;SDS011;54465;51.230;22.504;2024-01-06T14:12:45;9.55;;;5.68;;
32946;SDS011;54465;51.230;22.504;2024-01-06T14:17:46;10.85;;;6.07;;
32946;SDS011;54465;51.230;22.504;2024-01-06T14:22:50;8.27;;;5.95;;
32946;SDS011;54465;51.230;22.504;2024-01-06T14:27:51;7.70;;;4.85;;
32946;SDS011;54465;51.230;22.504;2024-01-06T14:32:51;8.23;;;5.43;;
32946;SDS011;54465;51.230;22.504;2024-01-06T14:37:52;9.60;;;5.45;;
32946;SDS011;54465;51.230;22.504;2024-01-06T14:42:54;9.55;;;5.43;;
32946;SDS011;54465;51.230;22.504;2024-01-06T14:47:54;8.40;;;5.20;;
32946;SDS011;54465;51.230;22.504;2024-01-06T14:52:55;7.90;;;5.03;;
32946;SDS011;54465;51.230;22.504;2024-01-06T14:57:55;9.90;;;5.82;;
32946;SDS011;54465;51.230;22.504;2024-01-06T15:02:56;7.45;;;4.80;;
32946;SDS011;54465;51.230;22.504;2024-01-06T15:07:57;9.73;;;5.65;;
32946;SDS011;54465;51.230;22.504;2024-01-06T15:12:58;8.40;;;5.10;;
32946;SDS011;54465;51.230;22.504;2024-01-06T15:17:58;8.90;;;5.68;;
32946;SDS011;54465;51.230;22.504;2024-01-06T15:22:59;9.75;;;5.32;;
32946;SDS011;54465;51.230;22.504;2024-01-06T15:28:00;8.75;;;5.45;;
32946;SDS011;54465;51.230;22.504;2024-01-06T15:33:00;8.10;;;4.95;;
32946;SDS011;54465;51.230;22.504;2024-01-06T15:38:01;7.80;;;4.80;;
32946;SDS011;54465;51.230;22.504;2024-01-06T15:43:01;11.60;;;5.35;;
32946;SDS011;54465;51.230;22.504;2024-01-06T15:48:02;10.13;;;5.28;;
32946;SDS011;54465;51.230;22.504;2024-01-06T15:53:03;6.75;;;4.38;;
32946;SDS011;54465;51.230;22.504;2024-01-06T15:58:04;6.78;;;4.72;;
32946;SDS011;54465;51.230;22.504;2024-01-06T16:03:05;6.50;;;3.85;;
32946;SDS011;54465;51.230;22.504;2024-01-06T16:08:06;6.05;;;4.32;;
32946;SDS011;54465;51.230;22.504;2024-01-06T16:13:07;9.07;;;4.80;;
32946;SDS011;54465;51.230;22.504;2024-01-06T16:18:07;6.53;;;4.72;;
32946;SDS011;54465;51.230;22.504;2024-01-06T16:23:08;4.95;;;4.22;;
32946;SDS011;54465;51.230;22.504;2024-01-06T16:28:13;9.13;;;4.35;;
32946;SDS011;54465;51.230;22.504;2024-01-06T16:33:14;7.57;;;3.60;;
32946;SDS011;54465;51.230;22.504;2024-01-06T16:38:15;9.07;;;4.38;;
32946;SDS011;54465;51.230;22.504;2024-01-06T16:43:16;7.95;;;4.70;;
32946;SDS011;54465;51.230;22.504;2024-01-06T16:48:16;8.63;;;4.20;;
32946;SDS011;54465;51.230;22.504;2024-01-06T16:53:17;9.13;;;4.53;;
32946;SDS011;54465;51.230;22.504;2024-01-06T16:58:17;6.40;;;4.30;;
32946;SDS011;54465;51.230;22.504;2024-01-06T17:03:18;8.02;;;4.38;;
32946;SDS011;54465;51.230;22.504;2024-01-06T17:08:19;6.05;;;4.00;;
32946;SDS011;54465;51.230;22.504;2024-01-06T17:13:19;6.45;;;3.58;;
32946;SDS011;54465;51.230;22.504;2024-01-06T17:18:22;5.95;;;3.75;;
32946;SDS011;54465;51.230;22.504;2024-01-06T17:23:22;7.10;;;4.35;;
32946;SDS011;54465;51.230;22.504;2024-01-06T17:28:23;6.53;;;3.85;;
32946;SDS011;54465;51.230;22.504;2024-01-06T17:33:24;7.22;;;4.05;;
32946;SDS011;54465;51.230;22.504;2024-01-06T17:38:24;6.45;;;4.10;;
32946;SDS011;54465;51.230;22.504;2024-01-06T17:43:25;6.68;;;4.30;;
32946;SDS011;54465;51.230;22.504;2024-01-06T17:48:25;8.32;;;4.43;;
32946;SDS011;54465;51.230;22.504;2024-01-06T17:53:26;7.25;;;4.30;;
32946;SDS011;54465;51.230;22.504;2024-01-06T17:58:27;9.20;;;4.55;;
32946;SDS011;54465;51.230;22.504;2024-01-06T18:03:29;9.07;;;4.70;;
32946;SDS011;54465;51.230;22.504;2024-01-06T18:08:30;8.10;;;4.43;;
32946;SDS011;54465;51.230;22.504;2024-01-06T18:13:30;8.32;;;4.53;;
32946;SDS011;54465;51.230;22.504;2024-01-06T18:18:31;7.55;;;4.47;;
32946;SDS011;54465;51.230;22.504;2024-01-06T18:23:32;6.20;;;4.13;;
32946;SDS011;54465;51.230;22.504;2024-01-06T18:28:33;8.00;;;4.03;;
32946;SDS011;54465;51.230;22.504;2024-01-06T18:33:39;6.60;;;4.40;;
32946;SDS011;54465;51.230;22.504;2024-01-06T18:38:39;6.50;;;4.40;;
32946;SDS011;54465;51.230;22.504;2024-01-06T18:43:40;5.78;;;3.75;;
32946;SDS011;54465;51.230;22.504;2024-01-06T18:48:40;5.85;;;3.72;;
32946;SDS011;54465;51.230;22.504;2024-01-06T18:53:41;8.82;;;4.53;;
32946;SDS011;54465;51.230;22.504;2024-01-06T18:58:42;7.85;;;4.63;;
32946;SDS011;54465;51.230;22.504;2024-01-06T19:03:43;6.97;;;4.20;;
32946;SDS011;54465;51.230;22.504;2024-01-06T19:08:43;12.50;;;5.82;;
32946;SDS011;54465;51.230;22.504;2024-01-06T19:13:44;5.78;;;3.60;;
32946;SDS011;54465;51.230;22.504;2024-01-06T19:18:44;5.43;;;3.80;;
32946;SDS011;54465;51.230;22.504;2024-01-06T19:23:45;7.38;;;3.67;;
32946;SDS011;54465;51.230;22.504;2024-01-06T19:28:47;6.10;;;3.63;;
32946;SDS011;54465;51.230;22.504;2024-01-06T19:33:47;5.68;;;3.30;;
32946;SDS011;54465;51.230;22.504;2024-01-06T19:38:50;5.65;;;3.83;;
32946;SDS011;54465;51.230;22.504;2024-01-06T19:43:50;6.13;;;3.47;;
32946;SDS011;54465;51.230;22.504;2024-01-06T19:48:51;6.40;;;3.47;;
32946;SDS011;54465;51.230;22.504;2024-01-06T19:53:51;7.88;;;4.05;;
32946;SDS011;54465;51.230;22.504;2024-01-06T19:58:52;7.50;;;4.10;;
32946;SDS011;54465;51.230;22.504;2024-01-06T20:03:52;6.63;;;3.60;;
32946;SDS011;54465;51.230;22.504;2024-01-06T20:08:53;6.60;;;3.90;;
32946;SDS011;54465;51.230;22.504;2024-01-06T20:13:53;6.13;;;3.67;;
32946;SDS011;54465;51.230;22.504;2024-01-06T20:18:55;6.35;;;3.80;;
32946;SDS011;54465;51.230;22.504;2024-01-06T20:23:56;5.60;;;2.55;;
32946;SDS011;54465;51.230;22.504;2024-01-06T20:28:58;5.47;;;2.85;;
32946;SDS011;54465;51.230;22.504;2024-01-06T20:33:59;6.72;;;2.85;;
32946;SDS011;54465;51.230;22.504;2024-01-06T20:38:59;4.18;;;2.70;;
32946;SDS011;54465;51.230;22.504;2024-01-06T20:44:00;6.97;;;3.05;;
32946;SDS011;54465;51.230;22.504;2024-01-06T20:49:00;6.13;;;3.08;;
32946;SDS011;54465;51.230;22.504;2024-01-06T20:54:01;6.47;;;2.97;;
32946;SDS011;54465;51.230;22.504;2024-01-06T20:59:02;5.05;;;2.67;;
32946;SDS011;54465;51.230;22.504;2024-01-06T21:04:03;3.72;;;2.75;;
32946;SDS011;54465;51.230;22.504;2024-01-06T21:09:03;7.28;;;3.38;;
32946;SDS011;54465;51.230;22.504;2024-01-06T21:14:04;3.65;;;2.60;;
32946;SDS011;54465;51.230;22.504;2024-01-06T21:19:05;4.50;;;2.63;;
32946;SDS011;54465;51.230;22.504;2024-01-06T21:24:05;4.53;;;3.08;;
32946;SDS011;54465;51.230;22.504;2024-01-06T21:29:06;4.18;;;2.72;;
32946;SDS011;54465;51.230;22.504;2024-01-06T21:34:07;4.07;;;2.75;;
32946;SDS011;54465;51.230;22.504;2024-01-06T21:39:07;5.47;;;2.78;;
32946;SDS011;54465;51.230;22.504;2024-01-06T21:44:08;4.95;;;2.47;;
32946;SDS011;54465;51.230;22.504;2024-01-06T21:49:08;3.67;;;2.90;;
32946;SDS011;54465;51.230;22.504;2024-01-06T21:54:11;4.80;;;2.30;;
32946;SDS011;54465;51.230;22.504;2024-01-06T21:59:12;4.38;;;2.40;;
32946;SDS011;54465;51.230;22.504;2024-01-06T22:04:13;3.90;;;2.65;;
32946;SDS011;54465;51.230;22.504;2024-01-06T22:09:14;5.65;;;2.78;;
32946;SDS011;54465;51.230;22.504;2024-01-06T22:14:15;5.72;;;2.30;;
32946;SDS011;54465;51.230;22.504;2024-01-06T22:19:15;3.47;;;2.13;;
32946;SDS011;54465;51.230;22.504;2024-01-06T22:24:16;3.78;;;2.08;;
32946;SDS011;54465;51.230;22.504;2024-01-06T22:29:18;3.20;;;1.73;;
32946;SDS011;54465;51.230;22.504;2024-01-06T22:34:21;4.38;;;1.65;;
32946;SDS011;54465;51.230;22.504;2024-01-06T22:39:21;3.67;;;1.67;;
32946;SDS011;54465;51.230;22.504;2024-01-06T22:44:25;3.17;;;1.75;;
32946;SDS011;54465;51.230;22.504;2024-01-06T22:49:26;3.42;;;1.40;;
32946;SDS011;54465;51.230;22.504;2024-01-06T22:54:26;1.98;;;1.35;;
32946;SDS011;54465;51.230;22.504;2024-01-06T22:59:27;2.80;;;1.42;;
32946;SDS011;54465;51.230;22.504;2024-01-06T23:04:27;3.05;;;1.30;;
32946;SDS011;54465;51.230;22.504;2024-01-06T23:09:28;3.85;;;1.23;;
32946;SDS011;54465;51.230;22.504;2024-01-06T23:14:29;1.70;;;0.85;;
32946;SDS011;54465;51.230;22.504;2024-01-06T23:19:29;3.42;;;1.50;;
32946;SDS011;54465;51.230;22.504;2024-01-06T23:24:30;2.58;;;1.25;;
32946;SDS011;54465;51.230;22.504;2024-01-06T23:29:32;2.50;;;1.25;;
32946;SDS011;54465;51.230;22.504;2024-01-06T23:34:33;3.42;;;1.30;;
32946;SDS011;54465;51.230;22.504;2024-01-06T23:39:34;2.53;;;1.67;;
32946;SDS011;54465;51.230;22.504;2024-01-06T23:44:35;2.30;;;1.38;;
32946;SDS011;54465;51.230;22.504;2024-01-06T23:49:35;2.97;;;0.88;;
32946;SDS011;54465;51.230;22.504;2024-01-06T23:54:39;2.60;;;1.40;;
32946;SDS011;54465;51.230;22.504;2024-01-06T23:59:40;2.65;;;1.60;;
